sensor_id;sensor_type;location;lat;lon;timestamp;temperature;humidity
4548;DHT22;2286;51.570;7.090;2023-03-14T00:00:06;11.40;1.00
4548;DHT22;2286;51.570;7.090;2023-03-14T00:02:34;11.40;1.00
4548;DHT22;2286;51.570;7.090;2023-03-14T00:05:03;11.30;1.00
4548;DHT22;2286;51.570;7.090;2023-03-14T00:07:33;11.30;1.00
4548;DHT22;2286;51.570;7.090;2023-03-14T00:10:01;11.20;1.00
4548;DHT22;2286;51.570;7.090;2023-03-14T00:12:30;11.10;1.00
4548;DHT22;2286;51.570;7.090;2023-03-14T00:14:57;11.10;1.00
4548;DHT22;2286;51.570;7.090;2023-03-14T00:17:26;11.10;1.00
4548;DHT22;2286;51.570;7.090;2023-03-14T00:19:53;11.10;1.00
4548;DHT22;2286;51.570;7.090;2023-03-14T00:22:21;11.10;1.00
4548;DHT22;2286;51.570;7.090;2023-03-14T00:24:48;11.10;1.00
4548;DHT22;2286;51.570;7.090;2023-03-14T00:27:15;11.10;1.00
4548;DHT22;2286;51.570;7.090;2023-03-14T00:29:42;11.10;1.00
4548;DHT22;2286;51.570;7.090;2023-03-14T00:32:10;11.10;1.00
4548;DHT22;2286;51.570;7.090;2023-03-14T00:34:37;11.10;1.00
4548;DHT22;2286;51.570;7.090;2023-03-14T00:37:05;11.20;1.00
4548;DHT22;2286;51.570;7.090;2023-03-14T00:39:33;11.20;1.00
4548;DHT22;2286;51.570;7.090;2023-03-14T00:42:00;11.20;1.00
4548;DHT22;2286;51.570;7.090;2023-03-14T00:44:28;11.20;1.00
4548;DHT22;2286;51.570;7.090;2023-03-14T00:46:55;11.30;1.00
4548;DHT22;2286;51.570;7.090;2023-03-14T00:49:22;11.30;1.00
4548;DHT22;2286;51.570;7.090;2023-03-14T00:51:49;11.40;1.00
4548;DHT22;2286;51.570;7.090;2023-03-14T00:54:17;11.50;1.00
4548;DHT22;2286;51.570;7.090;2023-03-14T00:56:45;11.50;1.00
4548;DHT22;2286;51.570;7.090;2023-03-14T00:59:12;11.60;1.00
4548;DHT22;2286;51.570;7.090;2023-03-14T01:01:40;11.50;24.90
4548;DHT22;2286;51.570;7.090;2023-03-14T01:04:07;11.20;1.00
4548;DHT22;2286;51.570;7.090;2023-03-14T01:06:35;10.80;99.90
4548;DHT22;2286;51.570;7.090;2023-03-14T01:09:02;10.50;1.00
4548;DHT22;2286;51.570;7.090;2023-03-14T01:11:32;10.30;99.90
4548;DHT22;2286;51.570;7.090;2023-03-14T01:14:01;10.20;1.00
4548;DHT22;2286;51.570;7.090;2023-03-14T01:16:30;10.00;1.00
4548;DHT22;2286;51.570;7.090;2023-03-14T01:18:57;9.90;1.00
4548;DHT22;2286;51.570;7.090;2023-03-14T01:21:26;9.80;1.00
4548;DHT22;2286;51.570;7.090;2023-03-14T01:23:54;9.80;1.00
4548;DHT22;2286;51.570;7.090;2023-03-14T01:26:23;9.70;99.90
4548;DHT22;2286;51.570;7.090;2023-03-14T01:28:52;9.60;1.00
4548;DHT22;2286;51.570;7.090;2023-03-14T01:31:21;9.50;1.00
4548;DHT22;2286;51.570;7.090;2023-03-14T01:33:49;9.60;1.00
4548;DHT22;2286;51.570;7.090;2023-03-14T01:36:16;9.50;1.00
4548;DHT22;2286;51.570;7.090;2023-03-14T01:38:43;9.50;1.00
4548;DHT22;2286;51.570;7.090;2023-03-14T01:41:13;9.50;1.00
4548;DHT22;2286;51.570;7.090;2023-03-14T01:43:41;9.50;1.00
4548;DHT22;2286;51.570;7.090;2023-03-14T01:46:32;9.50;1.00
4548;DHT22;2286;51.570;7.090;2023-03-14T01:49:05;9.40;1.00
4548;DHT22;2286;51.570;7.090;2023-03-14T01:51:37;9.40;1.00
4548;DHT22;2286;51.570;7.090;2023-03-14T01:54:10;9.40;1.00
4548;DHT22;2286;51.570;7.090;2023-03-14T01:56:39;9.40;1.00
4548;DHT22;2286;51.570;7.090;2023-03-14T01:59:10;9.40;99.90
4548;DHT22;2286;51.570;7.090;2023-03-14T02:01:41;9.40;99.90
4548;DHT22;2286;51.570;7.090;2023-03-14T02:04:10;9.40;99.90
4548;DHT22;2286;51.570;7.090;2023-03-14T02:06:47;9.40;99.90
4548;DHT22;2286;51.570;7.090;2023-03-14T02:09:15;9.40;99.90
4548;DHT22;2286;51.570;7.090;2023-03-14T02:11:43;9.40;99.90
4548;DHT22;2286;51.570;7.090;2023-03-14T02:14:21;9.40;99.90
4548;DHT22;2286;51.570;7.090;2023-03-14T02:16:52;9.30;99.90
4548;DHT22;2286;51.570;7.090;2023-03-14T02:19:26;9.30;99.90
4548;DHT22;2286;51.570;7.090;2023-03-14T02:21:57;9.30;99.90
4548;DHT22;2286;51.570;7.090;2023-03-14T02:24:34;9.30;99.90
4548;DHT22;2286;51.570;7.090;2023-03-14T02:27:10;9.40;99.90
4548;DHT22;2286;51.570;7.090;2023-03-14T02:29:41;9.40;1.00
4548;DHT22;2286;51.570;7.090;2023-03-14T02:32:10;9.40;1.00
4548;DHT22;2286;51.570;7.090;2023-03-14T02:34:38;9.50;1.00
4548;DHT22;2286;51.570;7.090;2023-03-14T02:37:06;9.40;1.00
4548;DHT22;2286;51.570;7.090;2023-03-14T02:39:38;9.40;1.00
4548;DHT22;2286;51.570;7.090;2023-03-14T02:42:05;9.40;99.90
4548;DHT22;2286;51.570;7.090;2023-03-14T02:44:34;9.40;68.20
4548;DHT22;2286;51.570;7.090;2023-03-14T02:47:02;9.40;1.00
4548;DHT22;2286;51.570;7.090;2023-03-14T02:49:32;9.50;1.00
4548;DHT22;2286;51.570;7.090;2023-03-14T02:52:00;9.60;99.90
4548;DHT22;2286;51.570;7.090;2023-03-14T02:54:27;9.50;99.90
4548;DHT22;2286;51.570;7.090;2023-03-14T02:56:54;9.50;99.90
4548;DHT22;2286;51.570;7.090;2023-03-14T02:59:21;9.50;99.90
4548;DHT22;2286;51.570;7.090;2023-03-14T03:01:49;9.40;99.90
4548;DHT22;2286;51.570;7.090;2023-03-14T03:04:16;9.40;1.00
4548;DHT22;2286;51.570;7.090;2023-03-14T03:06:43;9.30;1.00
4548;DHT22;2286;51.570;7.090;2023-03-14T03:09:10;9.30;1.00
4548;DHT22;2286;51.570;7.090;2023-03-14T03:11:37;9.20;1.00
4548;DHT22;2286;51.570;7.090;2023-03-14T03:14:04;9.20;1.00
4548;DHT22;2286;51.570;7.090;2023-03-14T03:16:31;9.20;1.00
4548;DHT22;2286;51.570;7.090;2023-03-14T03:19:00;9.20;1.00
4548;DHT22;2286;51.570;7.090;2023-03-14T03:21:27;9.30;1.00
4548;DHT22;2286;51.570;7.090;2023-03-14T03:23:54;9.30;99.90
4548;DHT22;2286;51.570;7.090;2023-03-14T03:26:21;9.20;1.00
4548;DHT22;2286;51.570;7.090;2023-03-14T03:28:50;9.30;99.90
4548;DHT22;2286;51.570;7.090;2023-03-14T03:31:17;9.30;99.90
4548;DHT22;2286;51.570;7.090;2023-03-14T03:33:45;9.30;99.90
4548;DHT22;2286;51.570;7.090;2023-03-14T03:36:13;9.40;99.90
4548;DHT22;2286;51.570;7.090;2023-03-14T03:38:40;9.40;99.90
4548;DHT22;2286;51.570;7.090;2023-03-14T03:41:07;9.50;99.90
4548;DHT22;2286;51.570;7.090;2023-03-14T03:43:34;9.60;13.80
4548;DHT22;2286;51.570;7.090;2023-03-14T03:46:03;9.60;1.00
4548;DHT22;2286;51.570;7.090;2023-03-14T03:48:31;9.60;1.00
4548;DHT22;2286;51.570;7.090;2023-03-14T03:50:58;9.60;1.00
4548;DHT22;2286;51.570;7.090;2023-03-14T03:53:26;9.60;1.00
4548;DHT22;2286;51.570;7.090;2023-03-14T03:55:53;9.50;1.00
4548;DHT22;2286;51.570;7.090;2023-03-14T03:58:20;9.50;1.00
4548;DHT22;2286;51.570;7.090;2023-03-14T04:00:47;9.50;8.20
4548;DHT22;2286;51.570;7.090;2023-03-14T04:03:14;9.50;55.30
4548;DHT22;2286;51.570;7.090;2023-03-14T04:05:41;9.50;56.20
4548;DHT22;2286;51.570;7.090;2023-03-14T04:08:08;9.50;36.10
4548;DHT22;2286;51.570;7.090;2023-03-14T04:10:37;9.60;99.90
4548;DHT22;2286;51.570;7.090;2023-03-14T04:13:04;9.60;99.90
4548;DHT22;2286;51.570;7.090;2023-03-14T04:15:31;9.50;99.90
4548;DHT22;2286;51.570;7.090;2023-03-14T04:17:58;9.50;99.90
4548;DHT22;2286;51.570;7.090;2023-03-14T04:20:25;9.50;99.90
4548;DHT22;2286;51.570;7.090;2023-03-14T04:22:52;9.50;99.90
4548;DHT22;2286;51.570;7.090;2023-03-14T04:25:19;9.40;99.90
4548;DHT22;2286;51.570;7.090;2023-03-14T04:27:48;9.40;1.00
4548;DHT22;2286;51.570;7.090;2023-03-14T04:30:15;9.40;1.00
4548;DHT22;2286;51.570;7.090;2023-03-14T04:32:42;9.40;99.90
4548;DHT22;2286;51.570;7.090;2023-03-14T04:35:09;9.50;99.90
4548;DHT22;2286;51.570;7.090;2023-03-14T04:37:36;9.50;99.90
4548;DHT22;2286;51.570;7.090;2023-03-14T04:40:04;9.40;99.90
4548;DHT22;2286;51.570;7.090;2023-03-14T04:42:32;9.40;1.00
4548;DHT22;2286;51.570;7.090;2023-03-14T04:45:00;9.30;99.90
4548;DHT22;2286;51.570;7.090;2023-03-14T04:47:28;9.20;1.00
4548;DHT22;2286;51.570;7.090;2023-03-14T04:49:55;9.10;99.90
4548;DHT22;2286;51.570;7.090;2023-03-14T04:52:22;8.90;99.90
4548;DHT22;2286;51.570;7.090;2023-03-14T04:54:49;8.90;99.90
4548;DHT22;2286;51.570;7.090;2023-03-14T04:57:16;8.80;99.90
4548;DHT22;2286;51.570;7.090;2023-03-14T04:59:43;8.80;1.00
4548;DHT22;2286;51.570;7.090;2023-03-14T05:02:12;8.70;99.90
4548;DHT22;2286;51.570;7.090;2023-03-14T05:04:39;8.70;99.90
4548;DHT22;2286;51.570;7.090;2023-03-14T05:07:06;8.70;99.90
4548;DHT22;2286;51.570;7.090;2023-03-14T05:09:33;8.60;99.90
4548;DHT22;2286;51.570;7.090;2023-03-14T05:12:00;8.60;1.00
4548;DHT22;2286;51.570;7.090;2023-03-14T05:14:27;8.60;1.00
4548;DHT22;2286;51.570;7.090;2023-03-14T05:16:54;8.50;47.00
4548;DHT22;2286;51.570;7.090;2023-03-14T05:19:22;8.40;99.90
4548;DHT22;2286;51.570;7.090;2023-03-14T05:21:49;8.40;99.90
4548;DHT22;2286;51.570;7.090;2023-03-14T05:24:17;8.40;99.90
4548;DHT22;2286;51.570;7.090;2023-03-14T05:26:44;8.40;1.00
4548;DHT22;2286;51.570;7.090;2023-03-14T05:29:11;8.40;1.00
4548;DHT22;2286;51.570;7.090;2023-03-14T05:31:38;8.40;1.00
4548;DHT22;2286;51.570;7.090;2023-03-14T05:34:05;8.40;1.00
4548;DHT22;2286;51.570;7.090;2023-03-14T05:36:34;8.40;99.90
4548;DHT22;2286;51.570;7.090;2023-03-14T05:39:01;8.40;99.90
4548;DHT22;2286;51.570;7.090;2023-03-14T05:41:28;8.30;99.90
4548;DHT22;2286;51.570;7.090;2023-03-14T05:43:55;8.40;1.00
4548;DHT22;2286;51.570;7.090;2023-03-14T05:46:22;8.30;1.00
4548;DHT22;2286;51.570;7.090;2023-03-14T05:48:49;8.40;1.00
4548;DHT22;2286;51.570;7.090;2023-03-14T05:51:16;8.40;99.90
4548;DHT22;2286;51.570;7.090;2023-03-14T05:53:44;8.40;99.90
4548;DHT22;2286;51.570;7.090;2023-03-14T05:56:11;8.40;1.00
4548;DHT22;2286;51.570;7.090;2023-03-14T05:58:38;8.40;1.00
4548;DHT22;2286;51.570;7.090;2023-03-14T06:01:06;8.40;99.90
4548;DHT22;2286;51.570;7.090;2023-03-14T06:03:34;8.40;99.90
4548;DHT22;2286;51.570;7.090;2023-03-14T06:06:01;8.40;1.00
4548;DHT22;2286;51.570;7.090;2023-03-14T06:08:28;8.40;1.00
4548;DHT22;2286;51.570;7.090;2023-03-14T06:10:57;8.40;99.90
4548;DHT22;2286;51.570;7.090;2023-03-14T06:13:24;8.50;99.90
4548;DHT22;2286;51.570;7.090;2023-03-14T06:15:51;8.50;1.00
4548;DHT22;2286;51.570;7.090;2023-03-14T06:18:18;8.50;1.00
4548;DHT22;2286;51.570;7.090;2023-03-14T06:20:45;8.50;99.90
4548;DHT22;2286;51.570;7.090;2023-03-14T06:23:12;8.50;99.90
4548;DHT22;2286;51.570;7.090;2023-03-14T06:25:39;8.50;1.00
4548;DHT22;2286;51.570;7.090;2023-03-14T06:28:07;8.50;1.00
4548;DHT22;2286;51.570;7.090;2023-03-14T06:30:35;8.50;99.90
4548;DHT22;2286;51.570;7.090;2023-03-14T06:33:02;8.60;99.90
4548;DHT22;2286;51.570;7.090;2023-03-14T06:35:29;8.60;1.00
4548;DHT22;2286;51.570;7.090;2023-03-14T06:37:56;8.60;1.00
4548;DHT22;2286;51.570;7.090;2023-03-14T06:40:23;8.60;40.50
4548;DHT22;2286;51.570;7.090;2023-03-14T06:42:50;8.60;99.90
4548;DHT22;2286;51.570;7.090;2023-03-14T06:45:18;8.60;99.90
4548;DHT22;2286;51.570;7.090;2023-03-14T06:47:45;8.70;1.00
4548;DHT22;2286;51.570;7.090;2023-03-14T06:50:12;8.70;1.00
4548;DHT22;2286;51.570;7.090;2023-03-14T06:52:39;8.70;1.00
4548;DHT22;2286;51.570;7.090;2023-03-14T06:55:11;8.80;1.00
4548;DHT22;2286;51.570;7.090;2023-03-14T06:57:38;8.80;1.00
4548;DHT22;2286;51.570;7.090;2023-03-14T07:00:07;8.80;1.00
4548;DHT22;2286;51.570;7.090;2023-03-14T07:02:36;8.80;1.00
4548;DHT22;2286;51.570;7.090;2023-03-14T07:05:04;8.80;1.00
4548;DHT22;2286;51.570;7.090;2023-03-14T07:07:31;8.90;25.00
4548;DHT22;2286;51.570;7.090;2023-03-14T07:09:58;8.90;50.00
4548;DHT22;2286;51.570;7.090;2023-03-14T07:12:25;9.00;76.60
4548;DHT22;2286;51.570;7.090;2023-03-14T07:14:52;9.00;96.50
4548;DHT22;2286;51.570;7.090;2023-03-14T07:17:19;9.10;90.60
4548;DHT22;2286;51.570;7.090;2023-03-14T07:19:47;9.10;77.70
4548;DHT22;2286;51.570;7.090;2023-03-14T07:22:14;9.10;65.20
4548;DHT22;2286;51.570;7.090;2023-03-14T07:24:41;9.10;43.90
4548;DHT22;2286;51.570;7.090;2023-03-14T07:27:08;9.20;1.00
4548;DHT22;2286;51.570;7.090;2023-03-14T07:29:35;9.20;1.00
4548;DHT22;2286;51.570;7.090;2023-03-14T07:32:02;9.30;1.00
4548;DHT22;2286;51.570;7.090;2023-03-14T07:34:29;9.20;1.00
4548;DHT22;2286;51.570;7.090;2023-03-14T07:36:58;9.30;1.00
4548;DHT22;2286;51.570;7.090;2023-03-14T07:39:25;9.30;1.00
4548;DHT22;2286;51.570;7.090;2023-03-14T07:41:52;9.40;1.00
4548;DHT22;2286;51.570;7.090;2023-03-14T07:44:19;9.40;1.00
4548;DHT22;2286;51.570;7.090;2023-03-14T07:46:46;9.50;1.00
4548;DHT22;2286;51.570;7.090;2023-03-14T07:49:13;9.50;99.90
4548;DHT22;2286;51.570;7.090;2023-03-14T07:51:40;9.50;99.90
4548;DHT22;2286;51.570;7.090;2023-03-14T07:54:10;9.50;99.90
4548;DHT22;2286;51.570;7.090;2023-03-14T07:56:37;9.50;1.00
4548;DHT22;2286;51.570;7.090;2023-03-14T07:59:04;9.60;99.90
4548;DHT22;2286;51.570;7.090;2023-03-14T08:01:31;9.60;1.00
4548;DHT22;2286;51.570;7.090;2023-03-14T08:03:58;9.60;1.00
4548;DHT22;2286;51.570;7.090;2023-03-14T08:06:26;9.60;1.00
4548;DHT22;2286;51.570;7.090;2023-03-14T08:08:53;9.60;1.00
4548;DHT22;2286;51.570;7.090;2023-03-14T08:11:21;9.70;1.00
4548;DHT22;2286;51.570;7.090;2023-03-14T08:13:48;9.70;1.00
4548;DHT22;2286;51.570;7.090;2023-03-14T08:16:17;9.70;1.00
4548;DHT22;2286;51.570;7.090;2023-03-14T08:18:44;9.70;99.90
4548;DHT22;2286;51.570;7.090;2023-03-14T08:21:12;9.80;99.90
4548;DHT22;2286;51.570;7.090;2023-03-14T08:23:39;9.80;3.50
4548;DHT22;2286;51.570;7.090;2023-03-14T08:26:07;9.80;99.90
4548;DHT22;2286;51.570;7.090;2023-03-14T08:28:35;9.80;11.50
4548;DHT22;2286;51.570;7.090;2023-03-14T08:31:03;9.90;1.00
4548;DHT22;2286;51.570;7.090;2023-03-14T08:33:30;9.90;1.00
4548;DHT22;2286;51.570;7.090;2023-03-14T08:35:59;10.00;99.90
4548;DHT22;2286;51.570;7.090;2023-03-14T08:38:26;10.00;99.90
4548;DHT22;2286;51.570;7.090;2023-03-14T08:40:57;10.10;1.00
4548;DHT22;2286;51.570;7.090;2023-03-14T08:43:25;10.20;99.90
4548;DHT22;2286;51.570;7.090;2023-03-14T08:45:56;10.20;1.00
4548;DHT22;2286;51.570;7.090;2023-03-14T08:50:43;10.20;1.00
4548;DHT22;2286;51.570;7.090;2023-03-14T08:53:11;10.20;1.00
4548;DHT22;2286;51.570;7.090;2023-03-14T09:08:49;10.00;1.00
4548;DHT22;2286;51.570;7.090;2023-03-14T09:11:16;9.90;99.90
4548;DHT22;2286;51.570;7.090;2023-03-14T09:13:44;9.90;1.00
4548;DHT22;2286;51.570;7.090;2023-03-14T09:16:11;9.90;1.00
4548;DHT22;2286;51.570;7.090;2023-03-14T09:18:38;9.80;1.00
4548;DHT22;2286;51.570;7.090;2023-03-14T09:21:06;9.80;99.90
4548;DHT22;2286;51.570;7.090;2023-03-14T09:23:33;9.80;99.90
4548;DHT22;2286;51.570;7.090;2023-03-14T09:26:01;9.80;1.00
4548;DHT22;2286;51.570;7.090;2023-03-14T09:28:28;9.80;1.00
4548;DHT22;2286;51.570;7.090;2023-03-14T09:30:56;9.40;1.00
4548;DHT22;2286;51.570;7.090;2023-03-14T09:33:23;9.00;99.90
4548;DHT22;2286;51.570;7.090;2023-03-14T09:35:50;8.60;99.90
4548;DHT22;2286;51.570;7.090;2023-03-14T09:38:17;8.50;1.00
4548;DHT22;2286;51.570;7.090;2023-03-14T09:40:47;8.40;1.00
4548;DHT22;2286;51.570;7.090;2023-03-14T09:43:16;8.40;99.90
4548;DHT22;2286;51.570;7.090;2023-03-14T09:45:44;8.30;99.90
4548;DHT22;2286;51.570;7.090;2023-03-14T09:48:16;8.20;99.90
4548;DHT22;2286;51.570;7.090;2023-03-14T09:50:46;8.30;99.90
4548;DHT22;2286;51.570;7.090;2023-03-14T09:53:17;8.30;1.00
4548;DHT22;2286;51.570;7.090;2023-03-14T09:55:45;8.30;99.90
4548;DHT22;2286;51.570;7.090;2023-03-14T09:58:18;8.30;99.90
4548;DHT22;2286;51.570;7.090;2023-03-14T10:00:46;8.20;99.90
4548;DHT22;2286;51.570;7.090;2023-03-14T10:03:31;8.30;95.80
4548;DHT22;2286;51.570;7.090;2023-03-14T10:05:59;8.30;1.00
4548;DHT22;2286;51.570;7.090;2023-03-14T10:08:26;8.30;1.00
4548;DHT22;2286;51.570;7.090;2023-03-14T10:10:54;8.30;1.00
4548;DHT22;2286;51.570;7.090;2023-03-14T10:13:25;8.20;99.90
4548;DHT22;2286;51.570;7.090;2023-03-14T10:15:55;8.10;99.90
4548;DHT22;2286;51.570;7.090;2023-03-14T10:18:23;8.00;99.90
4548;DHT22;2286;51.570;7.090;2023-03-14T10:21:02;7.90;99.90
4548;DHT22;2286;51.570;7.090;2023-03-14T10:23:32;7.90;1.00
4548;DHT22;2286;51.570;7.090;2023-03-14T10:26:05;8.00;99.90
4548;DHT22;2286;51.570;7.090;2023-03-14T10:28:38;8.00;99.90
4548;DHT22;2286;51.570;7.090;2023-03-14T10:31:06;7.80;99.90
4548;DHT22;2286;51.570;7.090;2023-03-14T10:33:35;7.80;99.90
4548;DHT22;2286;51.570;7.090;2023-03-14T10:36:04;7.80;58.90
4548;DHT22;2286;51.570;7.090;2023-03-14T10:38:33;7.80;1.00
4548;DHT22;2286;51.570;7.090;2023-03-14T10:41:01;7.70;1.00
4548;DHT22;2286;51.570;7.090;2023-03-14T10:43:32;7.60;99.90
4548;DHT22;2286;51.570;7.090;2023-03-14T10:46:08;7.60;1.00
4548;DHT22;2286;51.570;7.090;2023-03-14T10:48:36;7.60;99.90
4548;DHT22;2286;51.570;7.090;2023-03-14T10:51:05;7.50;99.90
4548;DHT22;2286;51.570;7.090;2023-03-14T10:53:34;7.30;1.00
4548;DHT22;2286;51.570;7.090;2023-03-14T10:56:05;7.20;1.00
4548;DHT22;2286;51.570;7.090;2023-03-14T10:58:37;7.10;99.90
4548;DHT22;2286;51.570;7.090;2023-03-14T11:04:01;7.10;99.90
4548;DHT22;2286;51.570;7.090;2023-03-14T11:06:36;7.20;99.90
4548;DHT22;2286;51.570;7.090;2023-03-14T11:09:10;7.20;1.00
4548;DHT22;2286;51.570;7.090;2023-03-14T11:11:40;7.60;99.90
4548;DHT22;2286;51.570;7.090;2023-03-14T11:14:16;8.00;1.00
4548;DHT22;2286;51.570;7.090;2023-03-14T11:16:53;8.30;1.00
4548;DHT22;2286;51.570;7.090;2023-03-14T11:19:36;8.40;1.00
4548;DHT22;2286;51.570;7.090;2023-03-14T11:22:14;8.00;99.90
4548;DHT22;2286;51.570;7.090;2023-03-14T11:25:09;7.90;99.90
4548;DHT22;2286;51.570;7.090;2023-03-14T11:27:44;7.70;99.90
4548;DHT22;2286;51.570;7.090;2023-03-14T11:30:18;7.70;99.90
4548;DHT22;2286;51.570;7.090;2023-03-14T11:32:52;7.80;99.90
4548;DHT22;2286;51.570;7.090;2023-03-14T11:35:25;7.60;99.90
4548;DHT22;2286;51.570;7.090;2023-03-14T11:37:55;7.70;99.90
4548;DHT22;2286;51.570;7.090;2023-03-14T11:40:26;7.50;99.90
4548;DHT22;2286;51.570;7.090;2023-03-14T11:43:04;7.50;99.90
4548;DHT22;2286;51.570;7.090;2023-03-14T11:45:35;7.40;99.90
4548;DHT22;2286;51.570;7.090;2023-03-14T11:48:24;7.30;99.90
4548;DHT22;2286;51.570;7.090;2023-03-14T11:50:55;7.20;99.90
4548;DHT22;2286;51.570;7.090;2023-03-14T11:53:36;7.20;99.90
4548;DHT22;2286;51.570;7.090;2023-03-14T11:56:11;7.00;99.90
4548;DHT22;2286;51.570;7.090;2023-03-14T11:58:47;6.80;99.90
4548;DHT22;2286;51.570;7.090;2023-03-14T12:01:17;6.80;99.90
4548;DHT22;2286;51.570;7.090;2023-03-14T12:03:54;6.90;1.00
4548;DHT22;2286;51.570;7.090;2023-03-14T12:06:30;7.00;1.00
4548;DHT22;2286;51.570;7.090;2023-03-14T12:09:01;7.00;99.90
4548;DHT22;2286;51.570;7.090;2023-03-14T12:11:35;7.50;1.00
4548;DHT22;2286;51.570;7.090;2023-03-14T12:14:22;8.30;1.00
4548;DHT22;2286;51.570;7.090;2023-03-14T12:16:53;9.50;77.20
4548;DHT22;2286;51.570;7.090;2023-03-14T12:19:36;11.10;1.00
4548;DHT22;2286;51.570;7.090;2023-03-14T12:22:13;12.30;1.00
4548;DHT22;2286;51.570;7.090;2023-03-14T12:24:48;12.00;99.90
4548;DHT22;2286;51.570;7.090;2023-03-14T12:27:40;11.70;99.90
4548;DHT22;2286;51.570;7.090;2023-03-14T12:30:23;10.80;99.90
4548;DHT22;2286;51.570;7.090;2023-03-14T12:36:01;9.70;1.00
4548;DHT22;2286;51.570;7.090;2023-03-14T12:38:38;9.70;99.90
4548;DHT22;2286;51.570;7.090;2023-03-14T12:41:15;9.80;99.90
4548;DHT22;2286;51.570;7.090;2023-03-14T12:43:42;9.60;1.00
4548;DHT22;2286;51.570;7.090;2023-03-14T12:46:19;9.30;1.00
4548;DHT22;2286;51.570;7.090;2023-03-14T12:48:48;8.30;1.00
4548;DHT22;2286;51.570;7.090;2023-03-14T12:51:18;7.80;26.80
4548;DHT22;2286;51.570;7.090;2023-03-14T12:54:09;7.30;99.90
4548;DHT22;2286;51.570;7.090;2023-03-14T12:56:51;7.00;99.90
4548;DHT22;2286;51.570;7.090;2023-03-14T12:59:32;6.90;1.00
4548;DHT22;2286;51.570;7.090;2023-03-14T13:02:10;6.90;99.90
4548;DHT22;2286;51.570;7.090;2023-03-14T13:04:44;6.90;1.00
4548;DHT22;2286;51.570;7.090;2023-03-14T13:07:30;7.10;99.90
4548;DHT22;2286;51.570;7.090;2023-03-14T13:10:02;7.40;1.00
4548;DHT22;2286;51.570;7.090;2023-03-14T13:12:37;7.70;1.00
4548;DHT22;2286;51.570;7.090;2023-03-14T13:15:18;8.10;99.90
4548;DHT22;2286;51.570;7.090;2023-03-14T13:17:47;8.20;99.90
4548;DHT22;2286;51.570;7.090;2023-03-14T13:20:20;8.00;99.90
4548;DHT22;2286;51.570;7.090;2023-03-14T13:22:50;7.70;99.90
4548;DHT22;2286;51.570;7.090;2023-03-14T13:25:17;7.20;99.90
4548;DHT22;2286;51.570;7.090;2023-03-14T13:27:47;6.80;99.90
4548;DHT22;2286;51.570;7.090;2023-03-14T13:30:39;6.80;1.00
4548;DHT22;2286;51.570;7.090;2023-03-14T13:33:07;6.80;1.00
4548;DHT22;2286;51.570;7.090;2023-03-14T13:35:40;6.80;1.00
4548;DHT22;2286;51.570;7.090;2023-03-14T13:38:17;7.30;1.00
4548;DHT22;2286;51.570;7.090;2023-03-14T13:40:46;7.60;1.00
4548;DHT22;2286;51.570;7.090;2023-03-14T13:43:18;8.20;1.00
4548;DHT22;2286;51.570;7.090;2023-03-14T13:45:51;8.80;1.00
4548;DHT22;2286;51.570;7.090;2023-03-14T13:48:20;9.50;99.90
4548;DHT22;2286;51.570;7.090;2023-03-14T13:50:53;10.20;99.90
4548;DHT22;2286;51.570;7.090;2023-03-14T13:53:23;10.40;1.00
4548;DHT22;2286;51.570;7.090;2023-03-14T13:55:51;10.90;1.00
4548;DHT22;2286;51.570;7.090;2023-03-14T13:58:26;11.40;1.00
4548;DHT22;2286;51.570;7.090;2023-03-14T14:01:03;11.20;99.90
4548;DHT22;2286;51.570;7.090;2023-03-14T14:03:33;10.80;99.90
4548;DHT22;2286;51.570;7.090;2023-03-14T14:06:01;10.60;99.90
4548;DHT22;2286;51.570;7.090;2023-03-14T14:08:29;10.60;99.90
4548;DHT22;2286;51.570;7.090;2023-03-14T14:10:59;11.10;99.90
4548;DHT22;2286;51.570;7.090;2023-03-14T14:13:30;10.90;99.90
4548;DHT22;2286;51.570;7.090;2023-03-14T14:16:00;10.50;99.90
4548;DHT22;2286;51.570;7.090;2023-03-14T14:18:28;10.60;99.90
4548;DHT22;2286;51.570;7.090;2023-03-14T14:20:57;10.70;99.90
4548;DHT22;2286;51.570;7.090;2023-03-14T14:23:25;11.10;99.90
4548;DHT22;2286;51.570;7.090;2023-03-14T14:25:56;12.30;99.90
4548;DHT22;2286;51.570;7.090;2023-03-14T14:28:26;12.10;99.90
4548;DHT22;2286;51.570;7.090;2023-03-14T14:31:02;12.50;99.90
4548;DHT22;2286;51.570;7.090;2023-03-14T14:33:30;13.50;99.90
4548;DHT22;2286;51.570;7.090;2023-03-14T14:36:04;13.20;99.90
4548;DHT22;2286;51.570;7.090;2023-03-14T14:38:31;13.00;99.90
4548;DHT22;2286;51.570;7.090;2023-03-14T14:41:02;12.10;99.90
4548;DHT22;2286;51.570;7.090;2023-03-14T14:43:36;11.50;99.90
4548;DHT22;2286;51.570;7.090;2023-03-14T14:46:07;11.10;99.90
4548;DHT22;2286;51.570;7.090;2023-03-14T14:48:37;10.80;99.90
4548;DHT22;2286;51.570;7.090;2023-03-14T14:51:06;11.10;99.90
4548;DHT22;2286;51.570;7.090;2023-03-14T14:53:37;11.50;99.90
4548;DHT22;2286;51.570;7.090;2023-03-14T14:56:08;11.40;99.90
4548;DHT22;2286;51.570;7.090;2023-03-14T14:58:43;11.50;99.90
4548;DHT22;2286;51.570;7.090;2023-03-14T15:01:13;11.30;99.90
4548;DHT22;2286;51.570;7.090;2023-03-14T15:03:43;10.90;99.90
4548;DHT22;2286;51.570;7.090;2023-03-14T15:06:11;11.80;99.90
4548;DHT22;2286;51.570;7.090;2023-03-14T15:08:39;13.40;99.90
4548;DHT22;2286;51.570;7.090;2023-03-14T15:11:09;14.60;99.90
4548;DHT22;2286;51.570;7.090;2023-03-14T15:13:39;14.00;99.90
4548;DHT22;2286;51.570;7.090;2023-03-14T15:16:09;13.80;99.90
4548;DHT22;2286;51.570;7.090;2023-03-14T15:18:37;13.70;99.90
4548;DHT22;2286;51.570;7.090;2023-03-14T15:21:04;13.50;99.90
4548;DHT22;2286;51.570;7.090;2023-03-14T15:23:31;14.10;99.90
4548;DHT22;2286;51.570;7.090;2023-03-14T15:25:58;13.10;99.90
4548;DHT22;2286;51.570;7.090;2023-03-14T15:28:28;12.80;99.90
4548;DHT22;2286;51.570;7.090;2023-03-14T15:30:57;12.80;99.90
4548;DHT22;2286;51.570;7.090;2023-03-14T15:33:25;12.00;99.90
4548;DHT22;2286;51.570;7.090;2023-03-14T15:35:52;11.40;99.90
4548;DHT22;2286;51.570;7.090;2023-03-14T15:38:21;11.30;99.90
4548;DHT22;2286;51.570;7.090;2023-03-14T15:40:49;11.00;99.90
4548;DHT22;2286;51.570;7.090;2023-03-14T15:43:16;11.10;99.90
4548;DHT22;2286;51.570;7.090;2023-03-14T15:57:39;11.30;99.90
4548;DHT22;2286;51.570;7.090;2023-03-14T16:00:11;9.60;99.90
4548;DHT22;2286;51.570;7.090;2023-03-14T16:02:40;10.00;99.90
4548;DHT22;2286;51.570;7.090;2023-03-14T16:05:08;10.20;99.90
4548;DHT22;2286;51.570;7.090;2023-03-14T16:07:36;10.10;99.90
4548;DHT22;2286;51.570;7.090;2023-03-14T16:10:06;10.30;99.90
4548;DHT22;2286;51.570;7.090;2023-03-14T16:12:34;10.40;99.90
4548;DHT22;2286;51.570;7.090;2023-03-14T16:15:04;10.70;99.90
4548;DHT22;2286;51.570;7.090;2023-03-14T16:17:31;11.40;99.90
4548;DHT22;2286;51.570;7.090;2023-03-14T16:19:59;12.60;99.90
4548;DHT22;2286;51.570;7.090;2023-03-14T16:22:27;12.70;99.90
4548;DHT22;2286;51.570;7.090;2023-03-14T16:24:59;12.40;99.90
4548;DHT22;2286;51.570;7.090;2023-03-14T16:27:26;11.60;99.90
4548;DHT22;2286;51.570;7.090;2023-03-14T16:29:55;10.90;99.90
4548;DHT22;2286;51.570;7.090;2023-03-14T16:32:24;10.20;99.90
4548;DHT22;2286;51.570;7.090;2023-03-14T16:34:52;9.50;99.90
4548;DHT22;2286;51.570;7.090;2023-03-14T16:37:19;9.00;99.90
4548;DHT22;2286;51.570;7.090;2023-03-14T16:39:47;8.60;99.90
4548;DHT22;2286;51.570;7.090;2023-03-14T16:42:15;8.20;99.90
4548;DHT22;2286;51.570;7.090;2023-03-14T16:44:43;8.10;99.90
4548;DHT22;2286;51.570;7.090;2023-03-14T16:47:10;8.00;99.90
4548;DHT22;2286;51.570;7.090;2023-03-14T16:49:39;8.00;99.90
4548;DHT22;2286;51.570;7.090;2023-03-14T16:52:08;7.90;99.90
4548;DHT22;2286;51.570;7.090;2023-03-14T16:54:35;7.70;99.90
4548;DHT22;2286;51.570;7.090;2023-03-14T16:57:03;7.60;99.90
4548;DHT22;2286;51.570;7.090;2023-03-14T16:59:30;7.40;99.90
4548;DHT22;2286;51.570;7.090;2023-03-14T17:01:58;7.30;99.90
4548;DHT22;2286;51.570;7.090;2023-03-14T17:04:26;7.20;99.90
4548;DHT22;2286;51.570;7.090;2023-03-14T17:06:55;7.00;99.90